ADDS METAR Data INFO
IDs: Format: Raw Decoded Include TAF

Data at: 0456 UTC 23 May 2017

KAUS 230453Z 33005KT 10SM FEW025 FEW100 19/18 A2993 RMK AO2 SLP130 T01940183
KAUS 230353Z 00000KT 10SM SCT200 19/18 A2992 RMK AO2 SLP125 T01890178
KAUS 230253Z 00000KT 10SM FEW022 FEW200 21/18 A2991 RMK AO2 SLP122 T02060183 53007
KAUS 230153Z 03005KT 10SM FEW022 SCT150 SCT200 22/18 A2990 RMK AO2 SLP119 T02220183
KAUS 230139Z 04006KT 10SM SCT022 SCT150 22/18 A2989 RMK AO2 T02220183
KAUS 230053Z 04008KT 10SM BKN022 23/18 A2989 RMK AO2 SLP115 T02330183
KAUS 230016Z 06008KT 10SM BKN020 24/19 A2990 RMK AO2 T02440189
KAUS 222353Z 04007KT 10SM SCT026 24/19 A2989 RMK AO2 SLP114 T02440189 10244 20222 56013
KAUS 222253Z 06009KT 10SM BKN020 OVC026 24/19 A2990 RMK AO2 SLP119 T02390189
KAUS 222153Z 05009KT 10SM OVC021 24/19 A2991 RMK AO2 SLP122 T02440189
KAUS 222053Z 08008KT 10SM OVC019 24/19 A2993 RMK AO2 SLP127 T02390189 58019
KAUS 221953Z 06009KT 10SM OVC015 23/19 A2995 RMK AO2 SLP135 T02330189
KAUS 221932Z 05012KT 10SM BKN015 OVC021 23/19 A2996 RMK AO2 T02330194
KAUS 221853Z 05009KT 10SM OVC011 23/19 A2997 RMK AO2 SLP143 T02280194
KAUS 221753Z 03009KT 10SM BKN011 OVC018 23/19 A2998 RMK AO2 SLP147 60002 T02280189 10228 20167 58014
KAUS 221653Z 05008KT 10SM OVC011 21/18 A3001 RMK AO2 RAE1554 SLP156 P0000 T02110183
KAUS 221553Z 02010KT 5SM -RA BR OVC007 20/18 A3001 RMK AO2 RAB31 SLP157 P0000 T02000183
KAUS 221453Z 02008KT 10SM OVC009 18/17 A3003 RMK AO2 SLP163 60002 T01830167 55001
KAUS 221353Z 01010KT 10SM OVC007 18/16 A3002 RMK AO2 SLP162 T01780161
KAUS 221253Z 36008KT 8SM BKN010 OVC015 17/16 A3003 RMK AO2 RAE42 SLP163 P0002 T01670156 $
KAUS 221210Z 01009KT 7SM -RA BKN010 OVC015 17/15 A3003 RMK AO2 P0002 T01670150 $
KAUS 221153Z 01011KT 4SM -RA BR OVC009 17/16 A3003 RMK AO2 SLP164 P0001 60012 70070 T01670156 10178 20167 53004 $
KAUS 221053Z 35006KT 5SM -RA BR OVC007 17/16 A3001 RMK AO2 RAB21 SLP156 P0011 T01720161 $
KAUS 221028Z 36010KT 4SM RA BR OVC007 17/16 A3001 RMK AO2 RAB21 P0003 T01720161 $
KAUS 220953Z 01010KT 10SM BKN007 OVC016 18/16 A3001 RMK AO2 SLP156 T01780161 $
KAUS 220912Z 02009KT 10SM BKN007 OVC014 18/16 A3002 RMK AO2 T01780161 $
KAUS 220853Z 02009KT 10SM OVC014 18/16 A3002 RMK AO2 RAE0756 SLP158 P0000 60000 T01780161 58013 $
KAUS 220753Z 01010KT 10SM -RA OVC013 17/16 A3005 RMK AO2 RAB11 PRESFR SLP169 P0000 T01720156 $
KAUS 220730Z 33007KT 10SM -RA BKN013 OVC025 17/16 A3008 RMK AO2 RAB11 P0000 T01720156 $
KAUS 220653Z 05009KT 10SM FEW018 OVC029 17/16 A3005 RMK AO2 SLP169 T01720156 $
KAUS 220634Z 07007KT 10SM BKN029 BKN120 18/16 A3006 RMK AO2 T01780156 $
KAUS 220553Z 01011KT 10SM SCT008 SCT110 18/16 A3006 RMK AO2 RAE35 SLP172 P0000 60025 T01780161 10200 20172 402610172 58014 $
KAUS 220539Z 36009KT 10SM SCT008 SCT110 18/16 A3006 RMK AO2 RAE35 P0000 T01780161 $
KAUS 220453Z 01011KT 10SM -RA FEW040 BKN100 BKN150 18/16 A3006 RMK AO2 RAB36 SLP173 P0000 T01780161 $
KAUS 220353Z 01009KT 10SM FEW012 SCT026 BKN042 18/16 A3010 RMK AO2 RAB30E46 SLP187 P0000 T01780161 $
KAUS 220350Z 01009KT 10SM SCT012 BKN026 BKN042 18/16 A3010 RMK AO2 RAB30E46 P0000 $
KAUS 220253Z 34006KT 10SM OVC012 18/17 A3007 RMK AO2 SLP175 60025 T01830167 55004 $
KAUS 220153Z 36005KT 10SM OVC012 19/17 A3006 RMK AO2 PK WND 01027/0109 RAE17 SLP173 OCNL LTG DSNT N-NE TS MOV NE P0003 T01890172 $
KAUS 220143Z 36008KT 10SM BKN012 OVC040 19/17 A3005 RMK AO2 PK WND 01027/0109 RAE17 OCNL LTG DSNT N-NE TS MOV NE P0003 T01890172 $
KAUS 220117Z VRB06G27KT 7SM SCT009 BKN039 BKN100 18/17 A3002 RMK AO2 PK WND 01027/0109 LTG DSNT N AND NE RAE17 PRESRR OCNL LTG DSNT N-NE TS MOV NE P0003 T01830172 $
KAUS 220105Z 36021KT 7SM -RA FEW042 BKN100 18/17 A2996 RMK AO2 PK WND 35026/0103 LTG DSNT N AND NE OCNL LTG DSNT N-NE TS MOV NE P0002 T01830167 $
KAUS 220053Z 01022G31KT 6SM -TSRA BR SCT038CB BKN075 OVC090 19/17 A2996 RMK AO2 PK WND 03031/0049 LTG DSNT N AND NE PRESFR SLP138 OCNL LTGICCCCG N-NE TS N-NE MOV N P0022 T01940172 $
KAUS 220035Z 02011KT 4SM -TSRA BR BKN038CB BKN075 OVC090 19/18 A3006 RMK AO2 LTG DSNT W-NE PRESFR OCNL LTGICCCCG N-NE AND NW TS N-NE AND NW MOV N P0021 T01940178 $
KAUS 220013Z 00000KT 2SM TSRA BR SCT017 BKN029CB OVC037 20/18 A3011 RMK AO2 LTG DSNT ALQDS PRESRR FRQ LTGICCCCG N-NE AND NW TS N-NE AND NW MOV N P0014 T02000183 $
KAUS 220005Z 34004KT 2SM TSRA BR SCT017 BKN029CB OVC037 19/18 A3010 RMK AO2 LTG DSNT ALQDS PRESRR FRQ LTGICCCCG OHD TS OHD MOV N P0010 T01940178 $
KAUS 212353Z 00000KT 3/4SM R17L/3000VP6000FT +TSRA BR FEW020 BKN029CB OVC065 19/18 A3008 RMK AO2 LTG DSNT ALQDS RAB2257E17B41 TSE2259B01 SLP179 FRQ LTGICCCCG OHD TS OHD MOV N P0033 60033 T01940183 10261 20194 53016 $
KAUS 212347Z 01007KT 1SM R17L/4500VP6000FT +TSRA BR FEW020 BKN029CB OVC065 21/18 A3007 RMK AO2 LTG DSNT ALQDS RAB2257E17B41 TSE2259B01 OCNL LTGICCCCG OHD TS OHD MOV N P0010
KAUS 212343Z 14015KT 1SM R17L/P6000FT +TSRA BR BKN029CB OVC100 22/18 A3007 RMK AO2 LTG DSNT ALQDS RAB2257E17B41 TSE2259B01 OCNL LTGICCCCG E-SE TS E-SE MOV N AND LTG DSNT ALQDS P0000 T02220178
KAUS 212339Z 14015KT 10SM TS BKN029CB OVC100 23/17 A3007 RMK AO2 LTG DSNT ALQDS RAB2257E17 TSE2259B01 OCNL LTGICCCCG E-SE TS E-SE MOV N AND LTG DSNT ALQDS P0000 T02280172
KAUS 212334Z 10SM TS BKN029CB OVC100 23/16 A3007 RMK AO2 LTG DSNT ALQDS RAB2257E17 TSE2259B01 PRESRR OCNL LTGICCCCG E-SE TS E-SE MOV N AND LTG DSNT ALQDS P0000 T02330161
KAUS 212301Z 02010KT 10SM -TSRA OVC029CB 24/17 A3003 RMK AO2 LTG DSNT ALQDS RAB2257 TSE2259B01 OCNL LTGICCCCG SE TS SE MOV N AND LTG DSNT ALQDS P0000 T02390167
KAUS 212253Z 03011KT 10SM BKN029 OVC100 24/16 A3003 RMK AO2 LTG DSNT N AND S AND NW SLP159 T02440156
KAUS 212153Z 02013G19KT 10SM BKN024 OVC090 25/16 A3002 RMK AO2 SLP158 T02500156
KAUS 212053Z 03012KT 10SM BKN025 OVC035 25/16 A3003 RMK AO2 SLP161 T02500161 58007
KAUS 211953Z 02014KT 10SM BKN024 OVC035 26/15 A3004 RMK AO2 SLP164 T02560150
KAUS 211853Z 02015KT 10SM BKN024 OVC037 26/14 A3005 RMK AO2 SLP166 T02560144
KAUS 211753Z 04018KT 10SM BKN022 OVC033 25/16 A3006 RMK AO2 SLP169 T02500161 10250 20222 58008


Page loaded:  04:56 UTC  |   09:56 PM Pacific  |   10:56 PM Mountain  |   11:56 PM Central  |   12:56 AM Eastern

 

ADVISORIES

FORECASTS

FORECASTS

OBSERVATIONS

USER TOOLS

ABOUT US